createdAt,value
2023-03-22T00:00:17.564Z,65.28
2023-03-22T00:01:41.591Z,65.16
2023-03-22T00:02:44.568Z,65.31
2023-03-22T00:03:49.394Z,65.20
2023-03-22T00:04:53.299Z,65.18
2023-03-22T00:05:59.402Z,65.27
2023-03-22T00:07:02.318Z,65.22
2023-03-22T00:08:07.167Z,65.37
2023-03-22T00:09:10.013Z,65.24
2023-03-22T00:10:12.847Z,65.41
2023-03-22T00:11:16.198Z,65.34
2023-03-22T00:12:18.975Z,65.24
2023-03-22T00:13:21.887Z,65.13
2023-03-22T00:14:24.744Z,65.27
2023-03-22T00:15:29.701Z,65.34
2023-03-22T00:16:32.807Z,65.34
2023-03-22T00:17:36.651Z,65.23
2023-03-22T00:18:39.908Z,65.37
2023-03-22T00:19:45.042Z,65.33
2023-03-22T00:20:49.929Z,65.34
2023-03-22T00:21:53.045Z,65.23
2023-03-22T00:22:58.885Z,65.24
2023-03-22T00:24:01.826Z,65.32
2023-03-22T00:25:05.849Z,65.13
2023-03-22T00:26:09.938Z,65.24
2023-03-22T00:27:13.977Z,65.24
2023-03-22T00:28:18.276Z,65.15
2023-03-22T00:29:22.790Z,65.09
2023-03-22T00:30:25.872Z,65.22
2023-03-22T00:31:28.848Z,65.31
2023-03-22T00:32:36.234Z,65.29
2023-03-22T00:33:39.306Z,65.33
2023-03-22T00:34:42.539Z,65.27
2023-03-22T00:35:50.223Z,65.38
2023-03-22T00:36:53.057Z,65.63
2023-03-22T00:37:56.427Z,65.76
2023-03-22T00:38:59.537Z,65.60
2023-03-22T00:40:03.651Z,65.78
2023-03-22T00:41:17.066Z,65.76
2023-03-22T00:42:20.636Z,65.88
2023-03-22T00:43:24.496Z,65.83
2023-03-22T00:44:27.592Z,65.86
2023-03-22T00:45:30.637Z,65.87
2023-03-22T00:46:33.586Z,65.97
2023-03-22T00:47:37.432Z,66.06
2023-03-22T00:48:41.050Z,66.18
2023-03-22T00:49:44.083Z,66.20
2023-03-22T00:50:47.178Z,66.12
2023-03-22T00:51:50.013Z,66.06
2023-03-22T00:52:53.501Z,66.04
2023-03-22T00:53:56.518Z,66.19
2023-03-22T00:54:59.375Z,66.14
2023-03-22T00:56:02.901Z,66.24
2023-03-22T00:57:13.001Z,66.42
2023-03-22T00:58:16.180Z,66.32
2023-03-22T00:59:19.673Z,66.16
2023-03-22T01:00:23.216Z,66.21
2023-03-22T01:01:26.321Z,66.14
2023-03-22T01:02:30.779Z,66.32
2023-03-22T01:03:35.105Z,66.26
2023-03-22T01:04:38.217Z,66.39
2023-03-22T01:05:42.104Z,66.32
2023-03-22T01:06:47.196Z,66.43
2023-03-22T01:07:54.991Z,66.34
2023-03-22T01:08:57.842Z,66.48
2023-03-22T01:10:01.066Z,66.56
2023-03-22T01:11:06.198Z,66.71
2023-03-22T01:12:09.221Z,66.66
2023-03-22T01:13:12.972Z,66.58
2023-03-22T01:14:15.932Z,66.63
2023-03-22T01:15:19.118Z,66.72
2023-03-22T01:16:22.335Z,66.77
2023-03-22T01:17:25.365Z,66.58
2023-03-22T01:18:28.405Z,66.69
2023-03-22T01:19:31.292Z,66.78
2023-03-22T01:20:35.084Z,66.92
2023-03-22T01:21:38.057Z,67.02
2023-03-22T01:22:41.591Z,66.86
2023-03-22T01:23:44.560Z,66.88
2023-03-22T01:24:50.154Z,66.96
2023-03-22T01:25:53.209Z,66.96
2023-03-22T01:26:56.417Z,66.80
2023-03-22T01:27:59.435Z,67.22
2023-03-22T01:29:02.328Z,67.14
2023-03-22T01:30:07.263Z,67.11
2023-03-22T01:32:06.471Z,66.80
2023-03-22T01:33:09.997Z,67.19
2023-03-22T01:34:13.065Z,67.08
2023-03-22T01:35:16.148Z,67.09
2023-03-22T01:36:19.025Z,67.09
2023-03-22T01:37:27.643Z,67.07
2023-03-22T01:38:30.717Z,67.17
2023-03-22T01:39:34.965Z,67.17
2023-03-22T01:40:40.472Z,67.20
2023-03-22T01:41:43.839Z,67.22
2023-03-22T01:42:50.160Z,67.16
2023-03-22T01:44:14.453Z,67.18
2023-03-22T01:45:32.516Z,67.30
2023-03-22T01:46:35.543Z,67.30
2023-03-22T01:47:41.438Z,67.20
2023-03-22T01:48:46.409Z,67.25
2023-03-22T01:49:50.142Z,67.29
2023-03-22T01:51:20.796Z,67.18
2023-03-22T01:52:33.172Z,67.51
2023-03-22T01:53:45.801Z,67.40
2023-03-22T01:54:52.214Z,67.41
2023-03-22T01:56:30.107Z,67.57
2023-03-22T01:57:37.606Z,67.57
2023-03-22T01:58:42.291Z,67.54
2023-03-22T01:59:46.575Z,67.42
2023-03-22T02:00:54.745Z,67.40
2023-03-22T02:02:05.361Z,67.57
2023-03-22T02:03:08.779Z,67.39
2023-03-22T02:04:20.109Z,67.51
2023-03-22T02:05:23.182Z,67.79
2023-03-22T02:06:27.286Z,67.79
2023-03-22T02:07:37.293Z,67.78
2023-03-22T02:08:40.795Z,67.74
2023-03-22T02:09:48.039Z,67.94
2023-03-22T02:10:52.069Z,68.11
2023-03-22T02:12:09.386Z,67.98
2023-03-22T02:13:39.708Z,68.17
2023-03-22T02:15:03.671Z,68.46
2023-03-22T02:16:44.738Z,68.51
2023-03-22T02:18:16.755Z,68.60
2023-03-22T02:19:42.585Z,68.71
2023-03-22T02:21:12.310Z,68.65
2023-03-22T02:22:38.864Z,68.82
2023-03-22T02:23:50.583Z,68.44
2023-03-22T02:25:12.687Z,68.62
2023-03-22T02:26:28.189Z,68.71
2023-03-22T02:28:08.519Z,68.70
2023-03-22T02:29:22.400Z,68.84
2023-03-22T02:30:28.540Z,68.74
2023-03-22T02:31:57.573Z,68.81
2023-03-22T02:33:00.712Z,68.87
2023-03-22T02:34:15.563Z,68.70
2023-03-22T02:35:33.505Z,68.74
2023-03-22T02:36:54.570Z,68.89
2023-03-22T02:38:02.912Z,69.03
2023-03-22T02:39:19.688Z,69.08
2023-03-22T02:40:38.898Z,68.88
2023-03-22T02:41:44.883Z,68.90
2023-03-22T02:43:16.172Z,68.90
2023-03-22T02:44:45.379Z,68.85
2023-03-22T02:45:56.659Z,69.07
2023-03-22T02:47:02.332Z,68.95
2023-03-22T02:48:28.607Z,68.88
2023-03-22T02:49:49.484Z,69.02
2023-03-22T02:51:00.614Z,68.89
2023-03-22T02:52:17.493Z,69.02
2023-03-22T02:53:41.579Z,68.98
2023-03-22T02:54:55.562Z,69.00
2023-03-22T02:56:11.419Z,68.77
2023-03-22T02:57:21.261Z,68.93
2023-03-22T02:58:50.351Z,68.95
2023-03-22T02:59:56.325Z,69.00
2023-03-22T03:01:07.287Z,68.76
2023-03-22T03:02:14.381Z,68.86
2023-03-22T03:03:20.623Z,68.63
2023-03-22T03:04:33.268Z,68.81
2023-03-22T03:05:36.319Z,68.85
2023-03-22T03:06:47.598Z,68.89
2023-03-22T03:07:57.221Z,68.69
2023-03-22T03:09:05.220Z,68.76
2023-03-22T03:10:09.467Z,68.73
2023-03-22T03:11:13.548Z,68.85
2023-03-22T03:12:22.979Z,68.88
2023-03-22T03:13:27.348Z,68.78
2023-03-22T03:14:32.323Z,68.92
2023-03-22T03:15:35.852Z,69.01
2023-03-22T03:16:41.208Z,69.20
2023-03-22T03:17:59.616Z,69.04
2023-03-22T03:19:32.439Z,68.96
2023-03-22T03:21:00.378Z,69.22
2023-03-22T03:22:44.908Z,69.36
2023-03-22T03:24:12.139Z,69.50
2023-03-22T03:25:40.371Z,69.49
2023-03-22T03:26:51.955Z,69.21
2023-03-22T03:28:05.566Z,69.21
2023-03-22T03:29:22.723Z,69.19
2023-03-22T03:30:38.977Z,69.22
2023-03-22T03:31:49.427Z,69.31
2023-03-22T03:32:59.288Z,69.61
2023-03-22T03:34:26.643Z,69.56
2023-03-22T03:35:38.431Z,69.68
2023-03-22T03:36:46.281Z,69.44
2023-03-22T03:37:57.700Z,69.30
2023-03-22T03:39:02.236Z,69.71
2023-03-22T03:40:31.115Z,69.48
2023-03-22T03:41:35.003Z,69.65
2023-03-22T03:42:42.539Z,69.51
2023-03-22T03:43:47.896Z,69.44
2023-03-22T03:44:51.714Z,69.75
2023-03-22T03:45:55.771Z,70.04
2023-03-22T03:46:59.435Z,70.10
2023-03-22T03:48:07.743Z,70.10
2023-03-22T03:49:13.044Z,69.98
2023-03-22T03:50:16.590Z,70.15
2023-03-22T03:51:19.704Z,70.37
2023-03-22T03:52:24.603Z,70.42
2023-03-22T03:53:28.486Z,70.51
2023-03-22T03:54:32.001Z,70.62
2023-03-22T03:55:35.000Z,70.97
2023-03-22T03:56:37.862Z,70.85
2023-03-22T03:57:40.817Z,71.18
2023-03-22T03:58:43.790Z,71.22
2023-03-22T03:59:47.425Z,71.35
2023-03-22T04:00:58.806Z,71.60
2023-03-22T04:02:24.639Z,71.99
2023-03-22T04:03:28.380Z,71.78
2023-03-22T04:04:49.941Z,71.93
2023-03-22T04:05:54.422Z,71.87
2023-03-22T04:07:03.448Z,71.70
2023-03-22T04:08:07.194Z,72.02
2023-03-22T04:09:10.210Z,71.88
2023-03-22T04:10:16.364Z,72.29
2023-03-22T04:11:20.725Z,72.32
2023-03-22T04:12:31.666Z,72.82
2023-03-22T04:13:48.610Z,72.86
2023-03-22T04:14:56.101Z,72.97
2023-03-22T04:16:02.245Z,72.86
2023-03-22T04:17:08.741Z,72.98
2023-03-22T04:18:12.045Z,72.86
2023-03-22T04:19:15.463Z,73.39
2023-03-22T04:20:18.474Z,73.54
2023-03-22T04:21:21.966Z,73.72
2023-03-22T04:22:38.439Z,73.59
2023-03-22T04:23:41.313Z,74.06
2023-03-22T04:24:50.069Z,74.09
2023-03-22T04:25:53.727Z,73.45
2023-03-22T04:27:08.602Z,73.40
2023-03-22T04:28:26.305Z,73.36
2023-03-22T04:29:32.147Z,73.71
2023-03-22T04:30:45.833Z,74.07
2023-03-22T04:32:11.301Z,73.60
2023-03-22T04:33:17.400Z,73.80
2023-03-22T04:34:47.270Z,74.56
2023-03-22T04:35:56.945Z,73.94
2023-03-22T04:37:03.397Z,74.60
2023-03-22T04:38:09.915Z,74.74
2023-03-22T04:39:13.253Z,74.71
2023-03-22T04:40:16.661Z,74.66
2023-03-22T04:41:42.782Z,74.66
2023-03-22T04:42:45.927Z,75.10
2023-03-22T04:43:57.754Z,75.18
2023-03-22T04:45:05.468Z,74.82
2023-03-22T04:46:10.141Z,75.07
2023-03-22T04:47:18.132Z,75.34
2023-03-22T04:48:22.328Z,74.76
2023-03-22T04:49:27.815Z,75.37
2023-03-22T04:50:30.738Z,75.64
2023-03-22T04:51:36.394Z,75.68
2023-03-22T04:53:13.186Z,76.06
2023-03-22T04:54:16.797Z,76.00
2023-03-22T04:55:20.539Z,75.85
2023-03-22T04:56:24.020Z,75.42
2023-03-22T04:57:27.401Z,75.58
2023-03-22T04:58:30.478Z,76.02
2023-03-22T04:59:33.653Z,75.63
2023-03-22T05:00:37.803Z,75.85
2023-03-22T05:01:42.618Z,75.52
2023-03-22T05:02:49.823Z,76.20
2023-03-22T05:04:22.272Z,76.31
2023-03-22T05:05:28.428Z,76.35
2023-03-22T05:06:34.361Z,76.35
2023-03-22T05:07:45.286Z,76.18
2023-03-22T05:08:48.209Z,76.23
2023-03-22T05:09:52.164Z,75.89
2023-03-22T05:10:56.780Z,76.19
2023-03-22T05:12:00.239Z,76.38
2023-03-22T05:13:25.026Z,76.43
2023-03-22T05:14:28.271Z,76.61
2023-03-22T05:15:32.493Z,76.58
2023-03-22T05:16:36.341Z,76.59
2023-03-22T05:17:39.432Z,76.44
2023-03-22T05:18:45.529Z,76.46
2023-03-22T05:19:48.759Z,76.50
2023-03-22T05:20:53.935Z,76.36
2023-03-22T05:22:01.828Z,76.59
2023-03-22T05:23:21.232Z,76.40
2023-03-22T05:24:26.661Z,76.69
2023-03-22T05:25:29.458Z,76.42
2023-03-22T05:26:32.484Z,76.36
2023-03-22T05:27:38.930Z,76.56
2023-03-22T05:28:55.923Z,77.01
2023-03-22T05:30:10.358Z,76.96
2023-03-22T05:31:24.405Z,77.03
2023-03-22T05:32:33.759Z,76.31
2023-03-22T05:33:36.662Z,76.66
2023-03-22T05:34:43.111Z,76.92
2023-03-22T05:35:54.169Z,76.97
2023-03-22T05:36:57.500Z,76.82
2023-03-22T05:38:06.473Z,76.99
2023-03-22T05:39:10.859Z,76.62
2023-03-22T05:40:14.825Z,76.79
2023-03-22T05:41:20.121Z,76.88
2023-03-22T05:42:23.255Z,76.83
2023-03-22T05:43:26.465Z,77.05
2023-03-22T05:44:29.480Z,76.76
2023-03-22T05:45:58.719Z,77.23
2023-03-22T05:47:13.156Z,77.23
2023-03-22T05:48:27.266Z,77.02
2023-03-22T05:49:31.159Z,76.92
2023-03-22T05:50:34.571Z,76.94
2023-03-22T05:51:41.716Z,76.56
2023-03-22T05:52:45.655Z,77.01
2023-03-22T05:54:08.590Z,76.92
2023-03-22T05:55:19.962Z,77.18
2023-03-22T05:56:24.585Z,76.83
2023-03-22T05:57:31.414Z,76.35
2023-03-22T05:58:35.064Z,76.67
2023-03-22T05:59:38.274Z,76.94
2023-03-22T06:00:43.236Z,77.10
2023-03-22T06:02:18.133Z,76.73
2023-03-22T06:03:22.472Z,77.03
2023-03-22T06:04:41.659Z,76.90
2023-03-22T06:05:54.881Z,77.16
2023-03-22T06:07:03.889Z,76.62
2023-03-22T06:08:17.511Z,76.32
2023-03-22T06:09:20.742Z,76.86
2023-03-22T06:10:28.155Z,76.80
2023-03-22T06:11:35.292Z,76.73
2023-03-22T06:12:39.882Z,76.57
2023-03-22T06:13:46.845Z,76.81
2023-03-22T06:14:49.910Z,76.86
2023-03-22T06:16:02.773Z,76.71
2023-03-22T06:17:05.950Z,76.70
2023-03-22T06:18:09.322Z,76.70
2023-03-22T06:19:15.544Z,76.67
2023-03-22T06:20:19.496Z,76.30
2023-03-22T06:21:28.227Z,76.65
2023-03-22T06:22:33.321Z,76.67
2023-03-22T06:23:36.556Z,76.58
2023-03-22T06:24:41.690Z,76.62
2023-03-22T06:25:45.639Z,76.53
2023-03-22T06:26:48.462Z,76.27
2023-03-22T06:27:51.492Z,76.44
2023-03-22T06:28:54.739Z,76.22
2023-03-22T06:29:58.866Z,76.17
2023-03-22T06:31:06.856Z,76.18
2023-03-22T06:32:26.676Z,76.28
2023-03-22T06:33:30.778Z,76.37
2023-03-22T06:34:37.906Z,76.30
2023-03-22T06:35:41.298Z,76.07
2023-03-22T06:36:45.440Z,76.32
2023-03-22T06:37:52.428Z,76.33
2023-03-22T06:38:55.494Z,76.16
2023-03-22T06:39:58.519Z,76.19
2023-03-22T06:41:01.568Z,76.12
2023-03-22T06:42:05.172Z,75.86
2023-03-22T06:43:09.406Z,76.06
2023-03-22T06:44:15.348Z,75.84
2023-03-22T06:45:22.011Z,75.97
2023-03-22T06:46:25.225Z,75.84
2023-03-22T06:47:35.268Z,75.99
2023-03-22T06:48:40.990Z,75.82
2023-03-22T06:49:48.722Z,75.81
2023-03-22T06:50:56.524Z,75.91
2023-03-22T06:52:06.875Z,75.96
2023-03-22T06:53:09.929Z,75.80
2023-03-22T06:54:13.339Z,75.70
2023-03-22T06:55:16.856Z,75.69
2023-03-22T06:56:20.529Z,75.56
2023-03-22T06:57:26.545Z,75.71
2023-03-22T06:58:29.616Z,75.45
2023-03-22T06:59:32.956Z,75.42
2023-03-22T07:00:36.460Z,75.44
2023-03-22T07:01:39.957Z,75.31
2023-03-22T07:02:43.141Z,75.44
2023-03-22T07:03:53.895Z,75.32
2023-03-22T07:04:58.476Z,75.50
2023-03-22T07:06:06.406Z,75.50
2023-03-22T07:07:10.218Z,75.50
2023-03-22T07:08:13.275Z,75.37
2023-03-22T07:09:25.096Z,75.37
2023-03-22T07:10:30.046Z,75.27
2023-03-22T07:11:32.993Z,75.44
2023-03-22T07:12:38.634Z,75.52
2023-03-22T07:13:46.175Z,75.42
2023-03-22T07:14:52.758Z,75.40
2023-03-22T07:16:08.419Z,75.47
2023-03-22T07:17:15.677Z,75.22
2023-03-22T07:18:18.652Z,75.19
2023-03-22T07:19:21.953Z,75.06
2023-03-22T07:20:24.938Z,74.85
2023-03-22T07:21:28.146Z,74.62
2023-03-22T07:22:33.840Z,74.40
2023-03-22T07:23:36.837Z,74.00
2023-03-22T07:24:55.835Z,73.94
2023-03-22T07:26:01.241Z,73.82
2023-03-22T07:27:07.860Z,73.49
2023-03-22T07:28:13.817Z,73.40
2023-03-22T07:29:17.440Z,73.34
2023-03-22T07:30:20.739Z,73.43
2023-03-22T07:31:23.897Z,73.25
2023-03-22T07:32:39.967Z,73.10
2023-03-22T07:33:46.207Z,72.96
2023-03-22T07:34:49.585Z,72.36
2023-03-22T07:35:54.544Z,72.16
2023-03-22T07:36:57.687Z,72.32
2023-03-22T07:38:01.330Z,72.03
2023-03-22T07:39:07.216Z,71.86
2023-03-22T07:40:13.929Z,71.97
2023-03-22T07:41:17.857Z,71.80
2023-03-22T07:42:30.139Z,71.94
2023-03-22T07:44:16.903Z,72.02
2023-03-22T07:45:26.516Z,71.66
2023-03-22T07:46:48.058Z,71.54
2023-03-22T07:48:06.596Z,71.61
2023-03-22T07:49:31.381Z,71.15
2023-03-22T07:50:42.236Z,71.36
2023-03-22T07:51:46.136Z,70.45
2023-03-22T07:52:49.552Z,70.06
2023-03-22T07:53:52.761Z,69.68
2023-03-22T07:54:56.217Z,69.66
2023-03-22T07:55:59.448Z,69.50
2023-03-22T07:57:02.626Z,69.74
2023-03-22T07:58:06.492Z,69.22
2023-03-22T07:59:10.031Z,69.14
2023-03-22T08:00:15.643Z,68.68
2023-03-22T08:01:18.633Z,68.74
2023-03-22T08:02:31.742Z,68.42
2023-03-22T08:03:38.015Z,68.64
2023-03-22T08:04:53.167Z,68.24
2023-03-22T08:06:21.441Z,68.43
2023-03-22T08:07:25.276Z,67.73
2023-03-22T08:08:28.269Z,67.87
2023-03-22T08:09:31.876Z,67.58
2023-03-22T08:10:35.525Z,67.65
2023-03-22T08:11:38.546Z,67.51
2023-03-22T08:12:42.370Z,67.46
2023-03-22T08:13:58.400Z,67.26
2023-03-22T08:15:01.859Z,67.45
2023-03-22T08:16:06.524Z,67.60
2023-03-22T08:17:09.787Z,67.54
2023-03-22T08:18:13.251Z,67.39
2023-03-22T08:19:16.290Z,67.23
2023-03-22T08:20:19.767Z,66.91
2023-03-22T08:21:27.502Z,66.64
2023-03-22T08:22:31.319Z,66.74
2023-03-22T08:23:52.609Z,66.49
2023-03-22T08:25:18.186Z,66.16
2023-03-22T08:26:22.140Z,66.29
2023-03-22T08:27:25.132Z,66.60
2023-03-22T08:28:28.051Z,66.66
2023-03-22T08:29:31.264Z,66.50
2023-03-22T08:30:34.197Z,66.19
2023-03-22T08:31:37.501Z,66.23
2023-03-22T08:32:40.361Z,66.02
2023-03-22T08:33:44.855Z,65.96
2023-03-22T08:34:48.111Z,66.10
2023-03-22T08:35:51.691Z,65.56
2023-03-22T08:36:54.927Z,65.96
2023-03-22T08:37:58.601Z,65.65
2023-03-22T08:39:08.420Z,65.45
2023-03-22T08:40:19.953Z,65.63
2023-03-22T08:41:28.231Z,65.25
2023-03-22T08:42:31.214Z,65.34
2023-03-22T08:43:34.274Z,65.31
2023-03-22T08:44:37.643Z,65.14
2023-03-22T08:45:41.124Z,65.36
2023-03-22T08:46:47.558Z,65.60
2023-03-22T08:47:50.500Z,65.85
2023-03-22T08:48:54.485Z,65.53
2023-03-22T08:50:06.949Z,65.54
2023-03-22T08:51:24.683Z,65.39
2023-03-22T08:52:38.310Z,65.28
2023-03-22T08:53:52.300Z,65.42
2023-03-22T08:55:17.379Z,65.24
2023-03-22T08:56:37.372Z,65.29
2023-03-22T08:57:53.772Z,64.88
2023-03-22T08:58:56.571Z,64.98
2023-03-22T09:00:16.313Z,65.03
2023-03-22T09:01:28.365Z,64.99
2023-03-22T09:02:38.690Z,64.81
2023-03-22T09:03:41.630Z,64.76
2023-03-22T09:04:45.008Z,64.33
2023-03-22T09:05:47.942Z,64.42
2023-03-22T09:06:51.100Z,64.19
2023-03-22T09:07:54.140Z,64.02
2023-03-22T09:09:05.438Z,64.24
2023-03-22T09:10:09.416Z,64.16
2023-03-22T09:11:14.337Z,64.26
2023-03-22T09:12:18.660Z,64.45
2023-03-22T09:13:21.784Z,64.17
2023-03-22T09:14:34.151Z,63.97
2023-03-22T09:15:37.114Z,64.17
2023-03-22T09:16:53.933Z,64.43
2023-03-22T09:17:56.957Z,64.29
2023-03-22T09:18:59.950Z,64.17
2023-03-22T09:20:12.434Z,64.04
2023-03-22T09:21:17.448Z,64.07
2023-03-22T09:22:33.556Z,64.02
2023-03-22T09:23:38.415Z,63.92
2023-03-22T09:24:42.099Z,63.82
2023-03-22T09:25:48.690Z,63.73
2023-03-22T09:26:54.571Z,63.74
2023-03-22T09:27:57.528Z,63.71
2023-03-22T09:29:00.963Z,63.81
2023-03-22T09:30:04.932Z,63.45
2023-03-22T09:31:10.114Z,63.26
2023-03-22T09:32:13.274Z,63.21
2023-03-22T09:33:16.466Z,63.17
2023-03-22T09:34:22.966Z,63.32
2023-03-22T09:35:25.991Z,63.45
2023-03-22T09:36:35.224Z,63.24
2023-03-22T09:37:38.989Z,62.63
2023-03-22T09:38:42.269Z,62.30
2023-03-22T09:39:45.388Z,62.62
2023-03-22T09:41:02.341Z,62.64
2023-03-22T09:42:45.044Z,62.33
2023-03-22T09:43:53.542Z,62.24
2023-03-22T09:44:57.650Z,61.62
2023-03-22T09:46:03.813Z,61.12
2023-03-22T09:47:13.681Z,61.23
2023-03-22T09:48:24.314Z,61.40
2023-03-22T09:49:50.545Z,61.51
2023-03-22T09:50:55.911Z,61.77
2023-03-22T09:51:58.937Z,61.63
2023-03-22T09:53:01.861Z,61.41
2023-03-22T09:54:12.845Z,61.43
2023-03-22T09:55:22.741Z,61.75
2023-03-22T09:56:31.966Z,61.89
2023-03-22T09:57:37.499Z,61.88
2023-03-22T09:59:03.604Z,61.91
2023-03-22T10:00:18.809Z,61.75
2023-03-22T10:01:40.750Z,61.39
2023-03-22T10:03:27.568Z,61.23
2023-03-22T10:05:03.819Z,61.19
2023-03-22T10:06:16.386Z,61.22
2023-03-22T10:07:38.674Z,61.61
2023-03-22T10:08:52.532Z,61.56
2023-03-22T10:09:58.175Z,61.21
2023-03-22T10:11:01.468Z,61.30
2023-03-22T10:12:17.364Z,61.45
2023-03-22T10:13:22.941Z,61.45
2023-03-22T10:14:46.808Z,61.51
2023-03-22T10:15:59.258Z,61.29
2023-03-22T10:17:06.780Z,61.38
2023-03-22T10:18:18.110Z,60.81
2023-03-22T10:19:41.924Z,60.65
2023-03-22T10:20:58.409Z,60.53
2023-03-22T10:22:02.595Z,60.34
2023-03-22T10:23:11.694Z,60.36
2023-03-22T10:24:22.796Z,60.22
2023-03-22T10:25:34.857Z,59.44
2023-03-22T10:26:41.703Z,59.39
2023-03-22T10:27:48.778Z,59.49
2023-03-22T10:29:03.971Z,59.65
2023-03-22T10:30:21.068Z,59.59
2023-03-22T10:31:26.701Z,59.92
2023-03-22T10:32:56.748Z,59.75
2023-03-22T10:34:08.080Z,59.68
2023-03-22T10:35:16.098Z,60.36
2023-03-22T10:36:22.986Z,61.06
2023-03-22T10:37:32.270Z,61.13
2023-03-22T10:38:48.264Z,61.33
2023-03-22T10:39:58.784Z,61.09
2023-03-22T10:41:02.711Z,61.62
2023-03-22T10:42:11.586Z,61.60
2023-03-22T10:43:36.769Z,61.92
2023-03-22T10:44:49.445Z,61.33
2023-03-22T10:45:54.757Z,62.23
2023-03-22T10:47:07.172Z,62.01
2023-03-22T10:48:28.971Z,62.05
2023-03-22T10:49:37.002Z,62.14
2023-03-22T10:50:43.193Z,62.38
2023-03-22T10:51:51.116Z,61.79
2023-03-22T10:53:06.995Z,62.14
2023-03-22T10:54:14.683Z,61.59
2023-03-22T10:55:17.681Z,61.27
2023-03-22T10:56:21.264Z,60.27
2023-03-22T10:57:27.633Z,59.93
2023-03-22T10:58:33.381Z,59.50
2023-03-22T10:59:45.797Z,58.77
2023-03-22T11:00:54.538Z,59.42
2023-03-22T11:01:57.673Z,59.64
2023-03-22T11:03:01.752Z,59.58
2023-03-22T11:04:12.356Z,60.05
2023-03-22T11:05:25.841Z,60.10
2023-03-22T11:06:33.027Z,59.81
2023-03-22T11:07:38.398Z,60.34
2023-03-22T11:08:43.939Z,60.26
2023-03-22T11:09:46.775Z,60.01
2023-03-22T11:10:51.600Z,59.83
2023-03-22T11:11:57.716Z,60.36
2023-03-22T11:13:09.684Z,60.45
2023-03-22T11:14:23.110Z,60.08
2023-03-22T11:15:29.996Z,60.48
2023-03-22T11:16:43.008Z,60.76
2023-03-22T11:17:46.118Z,60.30
2023-03-22T11:18:49.405Z,60.45
2023-03-22T11:19:59.449Z,60.34
2023-03-22T11:21:12.191Z,60.40
2023-03-22T11:22:34.824Z,60.34
2023-03-22T11:23:42.429Z,59.61
2023-03-22T11:24:47.303Z,60.12
2023-03-22T11:25:52.258Z,59.98
2023-03-22T11:27:07.552Z,60.12
2023-03-22T11:28:17.095Z,59.78
2023-03-22T11:29:20.608Z,59.50
2023-03-22T11:30:27.833Z,59.45
2023-03-22T11:31:58.361Z,59.97
2023-03-22T11:33:07.885Z,60.09
2023-03-22T11:34:18.785Z,60.06
2023-03-22T11:35:27.070Z,60.07
2023-03-22T11:36:30.056Z,59.54
2023-03-22T11:37:32.927Z,59.56
2023-03-22T11:38:41.136Z,59.43
2023-03-22T11:39:50.751Z,58.96
2023-03-22T11:41:01.441Z,58.95
2023-03-22T11:42:06.742Z,59.43
2023-03-22T11:43:21.047Z,58.74
2023-03-22T11:44:27.126Z,59.40
2023-03-22T11:45:33.158Z,59.07
2023-03-22T11:46:37.176Z,58.47
2023-03-22T11:47:40.334Z,58.47
2023-03-22T11:48:45.051Z,58.66
2023-03-22T11:49:51.046Z,58.87
2023-03-22T11:50:58.636Z,58.73
2023-03-22T11:52:09.387Z,58.89
2023-03-22T11:53:16.775Z,58.62
2023-03-22T11:54:34.264Z,58.58
2023-03-22T11:55:37.369Z,58.55
2023-03-22T11:56:43.544Z,58.50
2023-03-22T11:57:46.714Z,58.34
2023-03-22T11:59:07.645Z,57.88
2023-03-22T12:00:13.985Z,57.97
2023-03-22T12:01:24.275Z,57.15
2023-03-22T12:02:29.300Z,56.49
2023-03-22T12:03:42.216Z,55.64
2023-03-22T12:04:48.500Z,56.12
2023-03-22T12:05:52.656Z,55.94
2023-03-22T12:06:59.676Z,55.59
2023-03-22T12:08:15.993Z,55.70
2023-03-22T12:09:35.704Z,56.05
2023-03-22T12:10:44.497Z,55.82
2023-03-22T12:11:51.626Z,55.72
2023-03-22T12:12:59.710Z,55.82
2023-03-22T12:14:43.426Z,55.77
2023-03-22T12:15:55.019Z,56.34
2023-03-22T12:17:06.101Z,55.58
2023-03-22T12:18:17.546Z,55.09
2023-03-22T12:19:36.595Z,55.92
2023-03-22T12:20:52.040Z,56.07
2023-03-22T12:21:55.451Z,55.74
2023-03-22T12:22:59.779Z,56.32
2023-03-22T12:24:04.472Z,56.06
2023-03-22T12:25:20.796Z,56.20
2023-03-22T12:26:29.751Z,56.13
2023-03-22T12:27:42.058Z,56.03
2023-03-22T12:29:01.870Z,56.43
2023-03-22T12:30:12.414Z,56.38
2023-03-22T12:44:17.511Z,56.97
2023-03-22T12:45:26.495Z,57.15
2023-03-22T12:46:41.504Z,57.30
2023-03-22T12:47:51.423Z,57.02
2023-03-22T12:48:58.934Z,57.14
2023-03-22T12:50:21.438Z,57.09
2023-03-22T12:51:24.542Z,57.28
2023-03-22T12:52:56.662Z,57.35
2023-03-22T12:54:01.686Z,57.42
2023-03-22T12:55:06.533Z,57.68
2023-03-22T12:56:23.076Z,57.69
2023-03-22T12:57:26.786Z,57.83
2023-03-22T12:58:29.640Z,58.00
2023-03-22T12:59:32.872Z,58.19
2023-03-22T13:01:00.923Z,58.43
2023-03-22T13:02:14.398Z,58.55
2023-03-22T13:03:17.667Z,58.59
2023-03-22T13:04:44.053Z,58.73
2023-03-22T13:05:50.159Z,58.69
2023-03-22T13:06:53.973Z,58.50
2023-03-22T13:08:04.207Z,58.19
2023-03-22T13:09:19.480Z,58.01
2023-03-22T13:10:34.692Z,58.02
2023-03-22T13:11:37.714Z,57.90
2023-03-22T13:12:40.533Z,58.04
2023-03-22T13:13:46.399Z,58.20
2023-03-22T13:14:51.933Z,58.27
2023-03-22T13:16:13.081Z,58.49
2023-03-22T13:17:43.841Z,59.18
2023-03-22T13:18:49.919Z,59.23
2023-03-22T13:20:11.645Z,59.65
2023-03-22T13:21:16.492Z,59.69
2023-03-22T13:22:22.455Z,59.69
2023-03-22T13:23:27.219Z,59.87
2023-03-22T13:24:32.569Z,60.18
2023-03-22T13:25:38.592Z,60.50
2023-03-22T13:26:49.213Z,60.43
2023-03-22T13:27:57.923Z,60.51
2023-03-22T13:29:10.768Z,60.50
2023-03-22T13:30:22.668Z,60.42
2023-03-22T13:31:58.494Z,60.53
2023-03-22T13:33:09.816Z,60.41
2023-03-22T13:34:30.051Z,60.62
2023-03-22T13:35:51.066Z,60.69
2023-03-22T13:36:56.486Z,60.93
2023-03-22T13:38:10.154Z,61.16
2023-03-22T13:39:17.060Z,61.18
2023-03-22T13:40:31.888Z,61.72
2023-03-22T13:41:35.927Z,61.51
2023-03-22T13:42:40.986Z,61.85
2023-03-22T13:43:52.743Z,61.87
2023-03-22T13:44:59.304Z,61.91
2023-03-22T13:46:05.168Z,61.98
2023-03-22T13:47:28.964Z,62.58
2023-03-22T13:48:50.747Z,62.61
2023-03-22T13:50:00.377Z,62.75
2023-03-22T13:51:31.953Z,62.30
2023-03-22T13:52:39.300Z,61.68
2023-03-22T13:54:06.313Z,61.06
2023-03-22T13:55:41.176Z,60.77
2023-03-22T13:56:48.735Z,60.61
2023-03-22T13:57:59.136Z,60.22
2023-03-22T13:59:05.133Z,59.98
2023-03-22T14:00:39.529Z,59.67
2023-03-22T14:01:47.707Z,59.22
2023-03-22T14:02:51.526Z,58.97
2023-03-22T14:04:00.041Z,59.11
2023-03-22T14:05:13.682Z,59.27
2023-03-22T14:06:22.001Z,59.28
2023-03-22T14:07:37.145Z,59.58
2023-03-22T14:08:44.222Z,59.56
2023-03-22T14:09:54.416Z,59.88
2023-03-22T14:11:04.183Z,59.94
2023-03-22T14:12:23.157Z,60.12
2023-03-22T14:13:38.181Z,60.34
2023-03-22T14:14:47.151Z,60.23
2023-03-22T14:15:53.996Z,60.29
2023-03-22T14:17:05.899Z,60.32
2023-03-22T14:18:21.421Z,60.43
2023-03-22T14:19:29.096Z,60.45
2023-03-22T14:20:35.838Z,60.66
2023-03-22T14:21:41.485Z,60.77
